createdAt,value
2022-12-14T00:02:54.256Z,26.00
2022-12-14T00:05:56.792Z,24.50
2022-12-14T00:09:01.757Z,27.67
2022-12-14T00:12:04.459Z,26.08
2022-12-14T00:15:07.440Z,24.08
2022-12-14T00:18:10.914Z,18.88
2022-12-14T00:21:14.718Z,21.20
2022-12-14T00:24:16.997Z,20.77
2022-12-14T00:27:19.622Z,18.40
2022-12-14T00:30:22.007Z,23.77
2022-12-14T00:33:24.398Z,21.30
2022-12-14T00:36:26.797Z,22.38
2022-12-14T00:39:29.068Z,23.17
2022-12-14T00:42:31.837Z,20.60
2022-12-14T00:45:34.238Z,17.90
2022-12-14T00:48:36.788Z,22.42
2022-12-14T00:51:39.208Z,17.55
2022-12-14T00:54:42.381Z,24.98
2022-12-14T00:57:44.608Z,28.00
2022-12-14T01:00:48.482Z,26.80
2022-12-14T01:03:51.215Z,25.38
2022-12-14T01:06:55.067Z,26.05
2022-12-14T01:09:57.475Z,26.45
2022-12-14T01:12:59.777Z,25.30
2022-12-14T01:16:15.287Z,27.58
2022-12-14T01:19:17.705Z,27.73
2022-12-14T01:22:20.093Z,27.00
2022-12-14T01:25:22.606Z,28.30
2022-12-14T01:28:24.932Z,22.30
2022-12-14T01:31:32.031Z,25.10
2022-12-14T01:34:34.472Z,24.50
2022-12-14T01:37:36.783Z,24.33
2022-12-14T01:40:39.068Z,25.35
2022-12-14T01:43:56.486Z,23.08
2022-12-14T01:47:12.125Z,23.40
2022-12-14T01:50:36.388Z,23.42
2022-12-14T01:53:38.786Z,25.52
2022-12-14T01:56:43.864Z,21.95
2022-12-14T01:59:47.727Z,21.05
2022-12-14T02:03:12.493Z,20.45
2022-12-14T02:06:20.512Z,21.85
2022-12-14T02:09:26.331Z,23.48
2022-12-14T02:12:35.931Z,23.77
2022-12-14T02:15:39.457Z,26.85
2022-12-14T02:22:20.965Z,25.45
2022-12-14T02:25:56.050Z,25.40
2022-12-14T02:29:22.922Z,24.15
2022-12-14T02:32:42.533Z,22.50
2022-12-14T02:36:01.615Z,21.67
2022-12-14T02:39:19.176Z,21.90
2022-12-14T02:42:47.722Z,22.23
2022-12-14T02:46:19.761Z,22.70
2022-12-14T02:49:50.487Z,23.23
2022-12-14T02:52:52.779Z,20.40
2022-12-14T02:55:58.278Z,21.10
2022-12-14T02:59:01.478Z,27.08
2022-12-14T03:02:04.610Z,22.30
2022-12-14T03:08:13.003Z,22.90
2022-12-14T03:11:19.863Z,23.75
2022-12-14T03:14:32.161Z,22.73
2022-12-14T03:17:34.525Z,27.23
2022-12-14T03:20:37.982Z,25.73
2022-12-14T03:26:55.264Z,21.77
2022-12-14T03:30:01.129Z,21.20
2022-12-14T03:33:06.643Z,21.43
2022-12-14T03:36:38.172Z,22.20
2022-12-14T03:39:41.761Z,21.97
2022-12-14T03:46:13.873Z,19.20
2022-12-14T03:49:39.662Z,21.13
2022-12-14T03:52:59.606Z,19.63
2022-12-14T03:56:19.183Z,22.38
2022-12-14T03:59:36.237Z,21.87
2022-12-14T04:02:46.406Z,22.47
2022-12-14T04:06:29.285Z,20.93
2022-12-14T04:09:45.922Z,26.42
2022-12-14T04:13:07.411Z,22.60
2022-12-14T04:16:32.894Z,24.45
2022-12-14T04:20:00.379Z,25.33
2022-12-14T04:23:13.634Z,23.80
2022-12-14T04:26:18.441Z,23.42
2022-12-14T04:29:47.093Z,26.65
2022-12-14T04:32:52.520Z,28.00
2022-12-14T04:35:56.857Z,25.73
2022-12-14T04:39:06.369Z,28.85
2022-12-14T04:42:09.580Z,26.60
2022-12-14T04:45:17.108Z,26.23
2022-12-14T04:48:26.167Z,28.55
2022-12-14T04:51:41.272Z,27.75
2022-12-14T04:54:58.433Z,28.73
2022-12-14T04:58:11.037Z,28.80
2022-12-14T05:01:28.957Z,27.58
2022-12-14T05:05:18.236Z,30.92
2022-12-14T05:08:41.727Z,28.73
2022-12-14T05:12:06.837Z,30.33
2022-12-14T05:15:17.618Z,29.23
2022-12-14T05:18:20.163Z,27.80
2022-12-14T05:21:41.245Z,23.57
2022-12-14T05:24:43.518Z,31.27
2022-12-14T05:27:46.293Z,33.83
2022-12-14T05:30:48.905Z,25.63
2022-12-14T05:33:51.587Z,26.05
2022-12-14T05:36:54.644Z,32.63
2022-12-14T05:39:56.983Z,31.30
2022-12-14T05:43:11.071Z,32.53
2022-12-14T05:46:13.541Z,35.03
2022-12-14T05:49:16.507Z,33.83
2022-12-14T05:52:18.916Z,24.35
2022-12-14T05:55:21.375Z,25.07
2022-12-14T05:58:23.670Z,39.77
2022-12-14T06:01:26.076Z,32.20
2022-12-14T06:04:28.478Z,40.90
2022-12-14T06:07:30.945Z,37.27
2022-12-14T06:10:33.271Z,39.87
2022-12-14T06:13:40.090Z,56.63
2022-12-14T06:16:44.369Z,53.30
2022-12-14T06:19:50.063Z,62.87
2022-12-14T06:22:55.350Z,66.03
2022-12-14T06:25:57.817Z,46.63
2022-12-14T06:29:00.492Z,44.50
2022-12-14T06:32:02.855Z,40.25
2022-12-14T06:35:05.941Z,37.50
2022-12-14T06:38:08.697Z,49.22
2022-12-14T06:41:11.112Z,72.20
2022-12-14T06:44:14.822Z,41.13
2022-12-14T06:47:17.168Z,42.43
2022-12-14T06:50:19.538Z,39.17
2022-12-14T06:53:21.919Z,35.33
2022-12-14T06:56:26.333Z,34.43
2022-12-14T06:59:28.717Z,32.07
2022-12-14T07:02:31.563Z,33.50
2022-12-14T07:05:33.980Z,39.72
2022-12-14T07:08:39.089Z,61.57
2022-12-14T07:11:41.707Z,46.55
2022-12-14T07:14:43.947Z,27.92
2022-12-14T07:17:46.446Z,36.63
2022-12-14T07:21:04.087Z,31.13
2022-12-14T07:24:07.212Z,36.65
2022-12-14T07:27:09.729Z,32.58
2022-12-14T07:30:12.538Z,39.57
2022-12-14T07:33:14.972Z,28.15
2022-12-14T07:36:19.128Z,37.80
2022-12-14T07:39:22.210Z,34.53
2022-12-14T07:42:24.578Z,35.28
2022-12-14T07:45:27.176Z,36.05
2022-12-14T07:48:29.954Z,25.40
2022-12-14T07:51:37.265Z,28.20
2022-12-14T07:54:39.623Z,27.42
2022-12-14T07:57:41.992Z,27.33
2022-12-14T08:00:44.274Z,26.75
2022-12-14T08:03:49.268Z,26.58
2022-12-14T08:06:51.750Z,26.42
2022-12-14T08:09:54.135Z,27.40
2022-12-14T08:12:56.453Z,25.00
2022-12-14T08:16:13.634Z,28.35
2022-12-14T08:19:17.074Z,26.38
2022-12-14T08:22:19.572Z,24.20
2022-12-14T08:25:21.983Z,23.40
2022-12-14T08:28:24.908Z,26.60
2022-12-14T08:31:28.405Z,26.58
2022-12-14T08:37:33.037Z,27.80
2022-12-14T08:40:36.253Z,27.73
2022-12-14T08:43:39.233Z,27.13
2022-12-14T08:46:42.541Z,24.85
2022-12-14T08:49:45.289Z,26.88
2022-12-14T08:52:48.691Z,25.17
2022-12-14T08:55:51.146Z,25.70
2022-12-14T08:58:53.659Z,25.25
2022-12-14T09:01:56.298Z,30.67
2022-12-14T09:04:58.804Z,21.92
2022-12-14T09:08:01.098Z,23.58
2022-12-14T09:11:05.143Z,24.55
2022-12-14T09:14:07.499Z,24.65
2022-12-14T09:17:09.834Z,27.42
2022-12-14T09:20:13.784Z,24.67
2022-12-14T09:23:16.096Z,25.15
2022-12-14T09:26:23.782Z,24.27
2022-12-14T09:29:26.311Z,22.20
2022-12-14T09:32:31.835Z,26.50
2022-12-14T09:35:34.190Z,49.20
2022-12-14T09:38:38.042Z,47.35
2022-12-14T09:41:57.687Z,42.17
2022-12-14T09:45:22.680Z,48.80
2022-12-14T09:48:26.123Z,75.03
2022-12-14T09:54:40.527Z,53.65
2022-12-14T09:57:43.462Z,40.53
2022-12-14T10:01:10.361Z,36.80
2022-12-14T10:04:21.728Z,48.70
2022-12-14T10:07:40.658Z,39.78
2022-12-14T10:10:54.167Z,45.38
2022-12-14T10:14:44.079Z,28.58
2022-12-14T10:18:01.953Z,20.35
2022-12-14T10:21:13.749Z,18.23
2022-12-14T10:24:21.140Z,18.08
2022-12-14T10:27:25.783Z,21.77
2022-12-14T10:30:28.638Z,38.08
2022-12-14T10:33:32.587Z,17.85
2022-12-14T10:36:40.570Z,28.90
2022-12-14T10:40:12.469Z,32.10
2022-12-14T10:43:37.269Z,29.63
2022-12-14T10:46:59.839Z,19.20
2022-12-14T10:50:39.392Z,31.30
2022-12-14T10:53:47.888Z,25.15
2022-12-14T10:56:51.268Z,27.67
2022-12-14T11:00:07.643Z,26.75
2022-12-14T11:03:15.860Z,23.35
2022-12-14T11:06:20.155Z,25.52
2022-12-14T11:09:24.063Z,26.58
2022-12-14T11:12:27.744Z,41.22
2022-12-14T11:18:41.352Z,25.80
2022-12-14T11:21:44.382Z,24.90
2022-12-14T11:24:48.726Z,23.85
2022-12-14T11:27:51.188Z,22.63
2022-12-14T11:31:16.193Z,23.40
2022-12-14T11:34:35.000Z,23.30
2022-12-14T11:37:37.610Z,23.75
2022-12-14T11:40:40.043Z,37.25
2022-12-14T11:43:42.442Z,24.17
2022-12-14T11:47:00.309Z,22.90
2022-12-14T11:50:02.673Z,22.63
2022-12-14T11:53:11.278Z,20.05
2022-12-14T11:56:16.825Z,20.35
2022-12-14T11:59:19.936Z,22.50
2022-12-14T12:02:31.747Z,23.92
2022-12-14T12:05:39.245Z,23.88
2022-12-14T12:08:42.809Z,23.85
2022-12-14T12:11:45.866Z,23.48
2022-12-14T12:14:49.026Z,20.27
2022-12-14T12:17:55.278Z,27.92
2022-12-14T12:21:25.410Z,29.40
2022-12-14T12:25:16.710Z,25.45
2022-12-14T12:28:27.640Z,26.23
2022-12-14T12:31:34.017Z,23.40
2022-12-14T12:34:55.778Z,27.40
2022-12-14T12:38:02.784Z,50.35
2022-12-14T12:41:23.771Z,37.13
2022-12-14T12:44:41.489Z,27.58
2022-12-14T12:47:48.428Z,27.00
2022-12-14T12:50:54.124Z,42.33
2022-12-14T12:54:00.879Z,31.13
2022-12-14T12:57:04.883Z,45.58
2022-12-14T13:00:10.030Z,38.50
2022-12-14T13:03:27.953Z,36.38
2022-12-14T13:06:40.911Z,42.88
2022-12-14T13:09:53.985Z,43.93
2022-12-14T13:13:09.598Z,36.05
2022-12-14T13:16:28.775Z,30.77
2022-12-14T13:19:51.906Z,31.50
2022-12-14T13:22:59.526Z,23.38
2022-12-14T13:26:56.683Z,27.10
2022-12-14T13:30:06.610Z,25.02
2022-12-14T13:33:45.853Z,22.20
2022-12-14T13:40:25.255Z,22.35
2022-12-14T13:43:27.491Z,26.10
2022-12-14T13:46:30.356Z,30.60
2022-12-14T13:49:33.711Z,23.55
2022-12-14T13:52:41.833Z,26.25
2022-12-14T13:55:55.930Z,29.10
2022-12-14T13:58:59.484Z,26.55
2022-12-14T14:02:02.884Z,27.67
2022-12-14T14:05:20.370Z,28.75
2022-12-14T14:08:42.137Z,27.70
2022-12-14T14:11:45.214Z,29.45
2022-12-14T14:14:52.518Z,44.67
2022-12-14T14:17:56.014Z,30.10
2022-12-14T14:21:13.308Z,27.80
2022-12-14T14:24:18.636Z,25.48
2022-12-14T14:27:36.158Z,26.20
2022-12-14T14:30:51.438Z,27.10
2022-12-14T14:33:56.445Z,26.88
2022-12-14T14:36:58.850Z,30.02
2022-12-14T14:40:16.664Z,31.73
2022-12-14T14:43:49.731Z,32.10
2022-12-14T14:46:52.453Z,35.58
2022-12-14T14:50:00.125Z,34.70
2022-12-14T14:53:28.981Z,36.70
2022-12-14T14:56:31.248Z,37.20
2022-12-14T14:59:50.715Z,50.95
2022-12-14T15:02:55.378Z,40.70
2022-12-14T15:05:58.835Z,42.47
2022-12-14T15:09:21.388Z,43.00
2022-12-14T15:12:31.703Z,35.67
2022-12-14T15:15:38.287Z,39.40
2022-12-14T15:18:40.616Z,41.97
2022-12-14T15:21:42.935Z,44.23
2022-12-14T15:24:46.485Z,48.33
2022-12-14T15:30:51.038Z,46.53
2022-12-14T15:33:53.371Z,50.07
2022-12-14T15:36:56.035Z,55.57
2022-12-14T15:40:07.561Z,40.42
2022-12-14T15:43:20.943Z,54.63
2022-12-14T15:46:29.017Z,47.92
2022-12-14T15:49:31.322Z,47.93
2022-12-14T15:52:33.672Z,45.20
2022-12-14T15:55:38.549Z,47.97
2022-12-14T15:58:41.063Z,47.50
2022-12-14T16:01:53.239Z,64.20
2022-12-14T16:04:58.759Z,205.00
2022-12-14T16:08:01.119Z,63.83
2022-12-14T16:11:13.160Z,47.07
2022-12-14T16:14:22.771Z,47.00
2022-12-14T16:17:35.010Z,49.80
2022-12-14T16:20:38.540Z,54.83
2022-12-14T16:23:45.369Z,61.50
2022-12-14T16:26:57.308Z,57.73
2022-12-14T16:30:07.110Z,48.60
2022-12-14T16:33:20.277Z,48.20
2022-12-14T16:36:25.782Z,52.58
2022-12-14T16:39:47.771Z,50.13
2022-12-14T16:42:50.545Z,50.10
2022-12-14T16:45:55.914Z,52.67
2022-12-14T16:49:21.563Z,51.20
2022-12-14T16:52:32.856Z,54.53
2022-12-14T16:56:15.356Z,52.03
2022-12-14T16:59:29.525Z,49.03
2022-12-14T17:02:45.938Z,61.50
2022-12-14T17:05:53.215Z,55.80
2022-12-14T17:08:55.634Z,54.67
2022-12-14T17:12:03.699Z,53.60
2022-12-14T17:15:06.785Z,53.47
2022-12-14T17:18:10.303Z,54.78
2022-12-14T17:24:27.679Z,50.90
2022-12-14T17:27:30.579Z,43.60
2022-12-14T17:30:33.266Z,52.80
2022-12-14T17:33:35.581Z,55.90
2022-12-14T17:36:38.022Z,52.27
2022-12-14T17:39:40.319Z,50.87
2022-12-14T17:42:45.703Z,76.20
2022-12-14T17:45:48.177Z,57.10
2022-12-14T17:48:50.589Z,58.70
2022-12-14T17:51:52.888Z,55.43
2022-12-14T17:54:55.201Z,52.67
2022-12-14T17:57:58.127Z,58.37
2022-12-14T18:01:00.525Z,56.80
2022-12-14T18:04:02.964Z,57.23
2022-12-14T18:07:05.480Z,56.75
2022-12-14T18:10:08.540Z,53.53
2022-12-14T18:13:12.317Z,57.92
2022-12-14T18:16:17.770Z,56.73
2022-12-14T18:19:20.072Z,54.47
2022-12-14T18:22:22.464Z,58.77
2022-12-14T18:25:34.837Z,59.90
2022-12-14T18:28:37.177Z,60.10
2022-12-14T18:31:40.443Z,48.43
2022-12-14T18:37:45.103Z,53.00
2022-12-14T18:40:53.788Z,54.83
2022-12-14T18:43:56.562Z,52.70
2022-12-14T18:47:14.707Z,53.75
2022-12-14T18:50:22.202Z,58.63
2022-12-14T18:56:29.307Z,60.20
2022-12-14T18:59:31.679Z,54.80
2022-12-14T19:02:34.132Z,56.87
2022-12-14T19:05:36.667Z,45.80
2022-12-14T19:08:39.745Z,57.50
2022-12-14T19:11:42.698Z,66.35
2022-12-14T19:14:45.033Z,42.05
2022-12-14T19:17:52.206Z,52.77
2022-12-14T19:20:54.557Z,44.63
2022-12-14T19:23:59.487Z,55.27
2022-12-14T19:27:02.314Z,57.60
2022-12-14T19:30:06.880Z,50.57
2022-12-14T19:33:10.529Z,58.40
2022-12-14T19:36:13.039Z,59.07
2022-12-14T19:39:15.334Z,53.05
2022-12-14T19:42:18.508Z,53.90
2022-12-14T19:45:21.122Z,53.00
2022-12-14T19:48:23.442Z,46.50
2022-12-14T19:51:25.945Z,56.10
2022-12-14T19:54:30.937Z,54.37
2022-12-14T19:57:33.453Z,52.53
2022-12-14T20:00:35.883Z,42.55
2022-12-14T20:03:39.548Z,54.43
2022-12-14T20:06:44.104Z,58.77
2022-12-14T20:09:46.404Z,64.63
2022-12-14T20:12:48.746Z,51.90
2022-12-14T20:16:00.212Z,52.83
2022-12-14T20:19:02.557Z,54.70
2022-12-14T20:22:05.414Z,53.80
2022-12-14T20:25:07.998Z,41.58
2022-12-14T20:28:10.348Z,56.72
2022-12-14T20:31:15.256Z,53.07
2022-12-14T20:34:17.675Z,53.17
2022-12-14T20:37:20.082Z,40.93
2022-12-14T20:40:22.747Z,41.20
2022-12-14T20:43:25.045Z,53.33
2022-12-14T20:46:34.252Z,51.03
2022-12-14T20:49:38.933Z,52.53
2022-12-14T20:52:41.277Z,52.37
2022-12-14T20:55:43.613Z,53.03
2022-12-14T20:58:47.992Z,55.20
2022-12-14T21:01:55.831Z,55.63
2022-12-14T21:04:58.894Z,53.87
2022-12-14T21:08:01.210Z,55.07
2022-12-14T21:11:23.986Z,54.70
2022-12-14T21:14:32.473Z,64.30
2022-12-14T21:17:34.929Z,68.40
2022-12-14T21:20:37.382Z,57.13
2022-12-14T21:23:41.532Z,41.30
2022-12-14T21:26:44.195Z,56.87
2022-12-14T21:29:52.310Z,50.87
2022-12-14T21:32:54.638Z,52.83
2022-12-14T21:35:56.998Z,39.13
2022-12-14T21:38:59.543Z,51.93
2022-12-14T21:42:12.798Z,52.20
2022-12-14T21:45:15.183Z,60.47
2022-12-14T21:48:17.494Z,43.60
2022-12-14T21:51:20.200Z,65.93
2022-12-14T21:54:22.999Z,63.38
2022-12-14T21:57:49.388Z,48.38
2022-12-14T22:00:53.004Z,62.27
2022-12-14T22:03:55.398Z,67.70
2022-12-14T22:06:59.094Z,46.53
2022-12-14T22:10:01.815Z,60.70
2022-12-14T22:13:04.237Z,60.63
2022-12-14T22:16:07.662Z,45.77
2022-12-14T22:19:15.121Z,55.43
2022-12-14T22:22:17.728Z,60.53
2022-12-14T22:25:20.024Z,48.25
2022-12-14T22:28:22.819Z,58.40
2022-12-14T22:31:25.922Z,54.42
2022-12-14T22:34:28.288Z,56.85
2022-12-14T22:37:30.899Z,60.47
2022-12-14T22:40:33.390Z,47.20
2022-12-14T22:43:37.531Z,44.83
2022-12-14T22:46:40.690Z,60.17
2022-12-14T22:49:43.398Z,61.60
2022-12-14T22:52:49.525Z,56.78
2022-12-14T22:55:52.305Z,64.07
2022-12-14T22:59:09.796Z,80.00
2022-12-14T23:02:12.263Z,74.70
2022-12-14T23:05:14.860Z,69.82
2022-12-14T23:08:17.218Z,74.60
2022-12-14T23:11:38.257Z,71.13
2022-12-14T23:14:59.344Z,67.43
2022-12-14T23:18:22.209Z,60.60
2022-12-14T23:21:43.222Z,88.53
2022-12-14T23:25:04.054Z,67.27
2022-12-14T23:28:25.235Z,57.43
2022-12-14T23:31:46.172Z,54.10
2022-12-14T23:35:07.026Z,56.93
2022-12-14T23:38:28.809Z,70.80
2022-12-14T23:41:50.112Z,56.37
2022-12-14T23:45:11.009Z,59.23
2022-12-14T23:48:31.896Z,53.17
2022-12-14T23:51:53.040Z,58.23
2022-12-14T23:55:14.102Z,63.87
2022-12-14T23:58:34.951Z,57.90
